createdAt,value
2018-06-22T00:02:15.684Z,97670.00
2018-06-22T00:04:45.952Z,97672.00
2018-06-22T00:07:16.760Z,97679.00
2018-06-22T00:09:47.325Z,97680.00
2018-06-22T00:12:17.656Z,97679.00
2018-06-22T00:14:47.940Z,97682.00
2018-06-22T00:17:18.240Z,97695.00
2018-06-22T00:19:49.803Z,97678.00
2018-06-22T00:22:19.956Z,97674.00
2018-06-22T00:24:50.691Z,97669.00
2018-06-22T00:27:20.774Z,97675.00
2018-06-22T00:29:50.774Z,97679.00
2018-06-22T00:32:20.900Z,97684.00
2018-06-22T00:34:51.629Z,97689.00
2018-06-22T00:37:22.414Z,97693.00
2018-06-22T00:39:53.481Z,97698.00
2018-06-22T00:42:23.632Z,97700.00
2018-06-22T00:44:54.931Z,97706.00
2018-06-22T00:47:25.266Z,97704.00
2018-06-22T00:49:55.409Z,97701.00
2018-06-22T00:52:25.554Z,97709.00
2018-06-22T00:54:55.672Z,97721.00
2018-06-22T00:57:25.829Z,97700.00
2018-06-22T00:59:56.272Z,97705.00
2018-06-22T01:02:26.545Z,97703.00
2018-06-22T01:04:56.783Z,97701.00
2018-06-22T01:07:26.976Z,97709.00
2018-06-22T01:09:57.619Z,97709.00
2018-06-22T01:12:27.922Z,97707.00
2018-06-22T01:14:58.417Z,97708.00
2018-06-22T01:17:29.021Z,97708.00
2018-06-22T01:19:59.545Z,97714.00
2018-06-22T01:22:30.042Z,97706.00
2018-06-22T01:25:00.693Z,97705.00
2018-06-22T01:27:31.384Z,97711.00
2018-06-22T01:30:01.762Z,97712.00
2018-06-22T01:32:32.045Z,97704.00
2018-06-22T01:35:03.378Z,97707.00
2018-06-22T01:37:33.492Z,97719.00
2018-06-22T01:40:04.085Z,97712.00
2018-06-22T01:42:34.522Z,97711.00
2018-06-22T01:45:04.867Z,97703.00
2018-06-22T01:47:36.182Z,97707.00
2018-06-22T01:50:06.313Z,97707.00
2018-06-22T01:52:36.493Z,97700.00
2018-06-22T01:55:06.698Z,97700.00
2018-06-22T01:57:37.397Z,97702.00
2018-06-22T02:00:07.484Z,97709.00
2018-06-22T02:02:37.660Z,97700.00
2018-06-22T02:05:07.856Z,97703.00
2018-06-22T02:07:38.294Z,97711.00
2018-06-22T02:10:08.596Z,97705.00
2018-06-22T02:12:38.973Z,97699.00
2018-06-22T02:15:09.131Z,97707.00
2018-06-22T02:17:39.376Z,97697.00
2018-06-22T02:20:09.512Z,97698.00
2018-06-22T02:22:39.634Z,97691.00
2018-06-22T02:25:10.123Z,97693.00
2018-06-22T02:27:40.322Z,97693.00
2018-06-22T02:30:10.431Z,97693.00
2018-06-22T02:32:41.035Z,97702.00
2018-06-22T02:35:11.258Z,97697.00
2018-06-22T02:37:41.544Z,97696.00
2018-06-22T02:40:12.017Z,97698.00
2018-06-22T02:42:42.556Z,97701.00
2018-06-22T02:45:12.899Z,97702.00
2018-06-22T02:47:43.792Z,97700.00
2018-06-22T02:50:13.985Z,97696.00
2018-06-22T02:52:45.333Z,97696.00
2018-06-22T02:55:15.550Z,97703.00
2018-06-22T02:57:45.729Z,97695.00
2018-06-22T03:00:15.859Z,97708.00
2018-06-22T03:02:46.596Z,97701.00
2018-06-22T03:05:16.770Z,97704.00
2018-06-22T03:07:46.861Z,97703.00
2018-06-22T03:10:17.636Z,97697.00
2018-06-22T03:12:47.937Z,97687.00
2018-06-22T03:15:18.218Z,97699.00
2018-06-22T03:17:53.746Z,97693.00
2018-06-22T03:20:30.144Z,97700.00
2018-06-22T03:23:00.344Z,97697.00
2018-06-22T03:25:34.888Z,97695.00
2018-06-22T03:28:06.176Z,97700.00
2018-06-22T03:30:36.854Z,97695.00
2018-06-22T03:33:07.292Z,97697.00
2018-06-22T03:35:37.606Z,97697.00
2018-06-22T03:38:12.805Z,97706.00
2018-06-22T03:40:43.580Z,97698.00
2018-06-22T03:43:27.955Z,97690.00
2018-06-22T03:46:20.687Z,97687.00
2018-06-22T03:48:51.463Z,97689.00
2018-06-22T03:51:21.738Z,97682.00
2018-06-22T03:53:52.260Z,97682.00
2018-06-22T03:56:22.469Z,97679.00
2018-06-22T03:58:52.768Z,97677.00
2018-06-22T04:01:22.801Z,97682.00
2018-06-22T04:03:53.308Z,97678.00
2018-06-22T04:06:23.931Z,97674.00
2018-06-22T04:09:01.024Z,97675.00
2018-06-22T04:11:41.696Z,97672.00
2018-06-22T04:14:15.537Z,97661.00
2018-06-22T04:16:46.191Z,97674.00
2018-06-22T04:19:20.971Z,97665.00
2018-06-22T04:21:51.331Z,97659.00
2018-06-22T04:24:30.064Z,97647.00
2018-06-22T04:27:03.411Z,97662.00
2018-06-22T04:29:35.146Z,97662.00
2018-06-22T04:32:08.242Z,97652.00
2018-06-22T04:34:38.553Z,97665.00
2018-06-22T04:37:16.063Z,97654.00
2018-06-22T04:40:28.617Z,97658.00
2018-06-22T04:43:06.580Z,97649.00
2018-06-22T04:45:36.955Z,97657.00
2018-06-22T04:48:07.497Z,97656.00
2018-06-22T04:53:47.888Z,97646.00
2018-06-22T04:56:31.329Z,97654.00
2018-06-22T04:59:13.863Z,97651.00
2018-06-22T05:06:29.812Z,97651.00
2018-06-22T05:09:03.475Z,97647.00
2018-06-22T05:11:38.571Z,97648.00
2018-06-22T05:14:38.564Z,97652.00
2018-06-22T05:17:11.536Z,97639.00
2018-06-22T05:19:42.164Z,97650.00
2018-06-22T05:22:12.422Z,97651.00
2018-06-22T05:24:58.733Z,97648.00
2018-06-22T05:31:06.041Z,97637.00
2018-06-22T05:39:51.110Z,97638.00
2018-06-22T05:42:23.053Z,97641.00
2018-06-22T05:44:55.015Z,97637.00
2018-06-22T05:47:37.700Z,97649.00
2018-06-22T05:50:36.659Z,97643.00
2018-06-22T05:53:37.183Z,97642.00
2018-06-22T06:02:39.796Z,97635.00
2018-06-22T06:12:17.506Z,97635.00
2018-06-22T06:18:01.478Z,97635.00
2018-06-22T06:20:56.058Z,97637.00
2018-06-22T06:24:44.073Z,97638.00
2018-06-22T06:27:22.386Z,97643.00
2018-06-22T06:30:05.444Z,97633.00
2018-06-22T06:32:51.454Z,97644.00
2018-06-22T06:36:56.811Z,97650.00
2018-06-22T06:39:33.309Z,97631.00
2018-06-22T06:42:19.475Z,97642.00
2018-06-22T06:44:57.735Z,97629.00
2018-06-22T06:47:45.694Z,97628.00
2018-06-22T06:50:26.065Z,97635.00
2018-06-22T06:53:01.344Z,97622.00
2018-06-22T06:55:39.832Z,97621.00
2018-06-22T06:58:13.360Z,97627.00
2018-06-22T07:01:12.903Z,97617.00
2018-06-22T07:03:54.606Z,97628.00
2018-06-22T07:06:41.912Z,97625.00
2018-06-22T07:09:15.640Z,97621.00
2018-06-22T07:11:49.628Z,97628.00
2018-06-22T07:14:27.032Z,97618.00
2018-06-22T07:16:58.467Z,97620.00
2018-06-22T07:19:45.666Z,97619.00
2018-06-22T07:22:38.050Z,97628.00
2018-06-22T07:25:09.875Z,97628.00
2018-06-22T07:27:44.880Z,97617.00
2018-06-22T07:30:20.354Z,97635.00
2018-06-22T07:32:54.124Z,97651.00
2018-06-22T07:35:50.541Z,97642.00
2018-06-22T07:41:32.121Z,97650.00
2018-06-22T07:44:07.240Z,97647.00
2018-06-22T07:46:45.685Z,97652.00
2018-06-22T07:49:46.400Z,97650.00
2018-06-22T07:52:26.668Z,97664.00
2018-06-22T07:59:22.354Z,97646.00
2018-06-22T08:02:31.604Z,97655.00
2018-06-22T08:05:02.998Z,97655.00
2018-06-22T08:07:44.646Z,97651.00
2018-06-22T08:10:16.120Z,97654.00
2018-06-22T08:13:00.578Z,97655.00
2018-06-22T08:16:07.519Z,97657.00
2018-06-22T08:18:39.431Z,97661.00
2018-06-22T08:21:56.804Z,97670.00
2018-06-22T08:30:47.101Z,97669.00
2018-06-22T08:45:55.908Z,97679.00
2018-06-22T08:51:46.955Z,97673.00
2018-06-22T09:00:40.421Z,97679.00
2018-06-22T09:03:15.073Z,97679.00
2018-06-22T09:18:19.054Z,97690.00
2018-06-22T09:27:27.569Z,97696.00
2018-06-22T09:30:16.958Z,97699.00
2018-06-22T09:33:24.198Z,97691.00
2018-06-22T09:36:21.762Z,97698.00
2018-06-22T09:39:51.639Z,97698.00
2018-06-22T10:42:26.434Z,97715.00
2018-06-22T10:45:39.469Z,97716.00
2018-06-22T10:56:09.787Z,97728.00
2018-06-22T11:46:23.333Z,97744.00
2018-06-22T11:50:10.974Z,97747.00
2018-06-22T12:17:59.201Z,97745.00
2018-06-22T12:21:04.226Z,97755.00
2018-06-22T12:24:10.900Z,97747.00
2018-06-22T12:33:55.288Z,97735.00
2018-06-22T12:46:41.200Z,97735.00
2018-06-22T12:52:36.667Z,97746.00
2018-06-22T12:55:55.910Z,97742.00
2018-06-22T13:15:35.452Z,97734.00
2018-06-22T13:18:17.764Z,97731.00
2018-06-22T13:20:54.534Z,97739.00
2018-06-22T13:36:20.969Z,97736.00
2018-06-22T13:55:22.114Z,97748.00
2018-06-22T13:58:14.050Z,97757.00
2018-06-22T14:27:00.885Z,97760.00
2018-06-22T14:30:10.609Z,97772.00
2018-06-22T14:36:11.915Z,97773.00
2018-06-22T14:42:50.109Z,97769.00
2018-06-22T15:10:46.232Z,97756.00
2018-06-22T15:29:12.271Z,97748.00
2018-06-22T15:54:36.904Z,97792.00
2018-06-22T16:16:05.803Z,97780.00
2018-06-22T16:18:42.325Z,97795.00
2018-06-22T17:56:10.069Z,97843.00
2018-06-22T18:20:59.061Z,97850.00
2018-06-22T18:24:52.504Z,97837.00
2018-06-22T18:27:44.868Z,97854.00
2018-06-22T18:39:20.149Z,97842.00
2018-06-22T19:34:38.605Z,97890.00
2018-06-22T19:40:40.245Z,97900.00
2018-06-22T19:43:22.407Z,97918.00
2018-06-22T19:46:48.404Z,97928.00
2018-06-22T19:52:30.113Z,97935.00
2018-06-22T20:02:03.102Z,97939.00
2018-06-22T20:04:53.399Z,97934.00
2018-06-22T20:07:43.807Z,97923.00
2018-06-22T20:10:31.361Z,97928.00
2018-06-22T20:27:48.319Z,97939.00
2018-06-22T20:35:20.349Z,97943.00
2018-06-22T20:44:25.788Z,97939.00
2018-06-22T20:47:05.123Z,97937.00
2018-06-22T20:49:45.775Z,97951.00
2018-06-22T20:53:07.055Z,97945.00
2018-06-22T20:59:00.823Z,97938.00
2018-06-22T21:01:52.794Z,97938.00
2018-06-22T21:04:27.692Z,97950.00
2018-06-22T21:07:04.551Z,97946.00
2018-06-22T21:09:37.718Z,97952.00
2018-06-22T21:12:12.574Z,97951.00
2018-06-22T21:15:04.240Z,97952.00
2018-06-22T21:17:39.141Z,97971.00
2018-06-22T21:20:24.384Z,97964.00
2018-06-22T21:23:16.729Z,97967.00
2018-06-22T21:26:41.172Z,97962.00
2018-06-22T21:29:18.304Z,97961.00
2018-06-22T21:31:55.482Z,97971.00
2018-06-22T21:34:39.652Z,97965.00
2018-06-22T21:37:28.305Z,97964.00
2018-06-22T21:40:19.196Z,97980.00
2018-06-22T21:43:00.781Z,97968.00
2018-06-22T21:45:40.264Z,97984.00
2018-06-22T21:48:20.671Z,97973.00
2018-06-22T21:50:57.636Z,97973.00
2018-06-22T21:53:34.752Z,97978.00
2018-06-22T21:56:16.737Z,97979.00
2018-06-22T21:58:52.091Z,97986.00
2018-06-22T22:01:31.118Z,97975.00
2018-06-22T22:04:07.712Z,97980.00
2018-06-22T22:06:45.224Z,97978.00
2018-06-22T22:09:23.065Z,97978.00
2018-06-22T22:14:58.057Z,97989.00
2018-06-22T22:17:28.610Z,97974.00
2018-06-22T22:19:59.749Z,97983.00
2018-06-22T22:22:30.298Z,97978.00
2018-06-22T22:25:00.795Z,97983.00
2018-06-22T22:27:33.058Z,97978.00
2018-06-22T22:30:08.133Z,97975.00
2018-06-22T22:32:41.405Z,97969.00
2018-06-22T22:35:15.491Z,97976.00
2018-06-22T22:37:48.093Z,97976.00
2018-06-22T22:40:19.103Z,97977.00
2018-06-22T22:42:50.107Z,97986.00
2018-06-22T22:45:26.738Z,97980.00
2018-06-22T22:48:11.457Z,97983.00
2018-06-22T22:50:44.129Z,97981.00
2018-06-22T22:53:19.950Z,97987.00
2018-06-22T22:55:53.789Z,97980.00
2018-06-22T22:58:27.079Z,97994.00
2018-06-22T23:00:59.514Z,97986.00
2018-06-22T23:03:31.205Z,97991.00
2018-06-22T23:06:04.321Z,97993.00
2018-06-22T23:08:35.434Z,97991.00
2018-06-22T23:11:06.631Z,97996.00
2018-06-22T23:13:38.290Z,97989.00
2018-06-22T23:16:09.722Z,97996.00
2018-06-22T23:18:45.115Z,97989.00
2018-06-22T23:21:15.595Z,97985.00
2018-06-22T23:23:47.806Z,97988.00
2018-06-22T23:26:19.722Z,97985.00
2018-06-22T23:28:51.147Z,97986.00
2018-06-22T23:31:22.107Z,97988.00
2018-06-22T23:33:52.855Z,97987.00
2018-06-22T23:36:22.750Z,97980.00
2018-06-22T23:38:53.321Z,97983.00
2018-06-22T23:41:26.833Z,97986.00
2018-06-22T23:43:58.633Z,97980.00
2018-06-22T23:46:33.353Z,97985.00
2018-06-22T23:49:04.414Z,97997.00
2018-06-22T23:51:36.371Z,97987.00
2018-06-22T23:54:08.222Z,97992.00
2018-06-22T23:56:43.656Z,98000.00
2018-06-22T23:59:22.819Z,98001.00
